sensor_id;sensor_type;location;lat;lon;timestamp;pressure;altitude;pressure_sealevel;temperature;humidity
48792;BME280;34587;48.816;9.420;2022-11-21T00:00:45;98037.97;;;12.85;68.56
48792;BME280;34587;48.816;9.420;2022-11-21T00:03:11;98037.97;;;12.85;69.19
48792;BME280;34587;48.816;9.420;2022-11-21T00:05:39;98036.19;;;12.87;69.29
48792;BME280;34587;48.816;9.420;2022-11-21T00:08:09;98029.25;;;12.86;69.14
48792;BME280;34587;48.816;9.420;2022-11-21T00:10:35;98029.25;;;12.86;68.74
48792;BME280;34587;48.816;9.420;2022-11-21T00:13:00;98013.72;;;12.84;68.96
48792;BME280;34587;48.816;9.420;2022-11-21T00:15:26;98019.66;;;12.88;69.16
48792;BME280;34587;48.816;9.420;2022-11-21T00:17:51;98006.59;;;12.90;68.87
48792;BME280;34587;48.816;9.420;2022-11-21T00:20:18;98014.34;;;12.91;69.26
48792;BME280;34587;48.816;9.420;2022-11-21T00:22:44;98009.16;;;12.91;69.25
48792;BME280;34587;48.816;9.420;2022-11-21T00:25:11;98009.06;;;12.93;69.37
48792;BME280;34587;48.816;9.420;2022-11-21T00:27:36;98008.22;;;12.92;69.01
48792;BME280;34587;48.816;9.420;2022-11-21T00:30:02;98014.28;;;12.93;68.77
48792;BME280;34587;48.816;9.420;2022-11-21T00:32:27;98001.22;;;12.94;69.21
48792;BME280;34587;48.816;9.420;2022-11-21T00:34:53;98002.06;;;12.95;69.18
48792;BME280;34587;48.816;9.420;2022-11-21T00:37:18;97990.81;;;12.94;69.03
48792;BME280;34587;48.816;9.420;2022-11-21T00:39:43;97996.00;;;12.94;69.36
48792;BME280;34587;48.816;9.420;2022-11-21T00:42:09;97992.50;;;12.95;69.05
48792;BME280;34587;48.816;9.420;2022-11-21T00:44:34;98002.91;;;12.95;69.21
48792;BME280;34587;48.816;9.420;2022-11-21T00:46:59;97994.25;;;12.95;69.15
48792;BME280;34587;48.816;9.420;2022-11-21T00:49:25;97991.66;;;12.95;68.75
48792;BME280;34587;48.816;9.420;2022-11-21T00:51:50;97996.84;;;12.95;67.96
48792;BME280;34587;48.816;9.420;2022-11-21T00:54:15;97992.50;;;12.95;68.10
48792;BME280;34587;48.816;9.420;2022-11-21T00:56:40;97994.22;;;12.96;68.21
48792;BME280;34587;48.816;9.420;2022-11-21T00:59:06;97988.13;;;12.96;67.88
48792;BME280;34587;48.816;9.420;2022-11-21T05:15:21;97878.88;;;12.77;68.63
48792;BME280;34587;48.816;9.420;2022-11-21T05:17:46;97878.88;;;12.77;68.74
48792;BME280;34587;48.816;9.420;2022-11-21T05:20:12;97876.28;;;12.77;68.39
48792;BME280;34587;48.816;9.420;2022-11-21T05:22:37;97871.06;;;12.77;68.31
48792;BME280;34587;48.816;9.420;2022-11-21T05:25:03;97875.34;;;12.78;68.78
48792;BME280;34587;48.816;9.420;2022-11-21T05:27:28;97872.81;;;12.76;68.44
48792;BME280;34587;48.816;9.420;2022-11-21T05:29:54;97871.97;;;12.76;68.78
48792;BME280;34587;48.816;9.420;2022-11-21T05:32:19;97876.28;;;12.77;68.67
48792;BME280;34587;48.816;9.420;2022-11-21T05:34:45;97877.16;;;12.76;68.55
48792;BME280;34587;48.816;9.420;2022-11-21T05:37:10;97867.69;;;12.75;68.37
48792;BME280;34587;48.816;9.420;2022-11-21T05:39:35;97874.56;;;12.76;68.50
48792;BME280;34587;48.816;9.420;2022-11-21T05:42:01;97878.88;;;12.77;68.55
48792;BME280;34587;48.816;9.420;2022-11-21T05:44:26;97877.16;;;12.76;68.54
48792;BME280;34587;48.816;9.420;2022-11-21T05:46:51;97887.56;;;12.76;68.76
48792;BME280;34587;48.816;9.420;2022-11-21T05:49:17;97897.94;;;12.76;68.96
48792;BME280;34587;48.816;9.420;2022-11-21T05:51:42;97899.66;;;12.77;68.46
48792;BME280;34587;48.816;9.420;2022-11-21T05:54:11;97900.44;;;12.79;68.68
48792;BME280;34587;48.816;9.420;2022-11-21T05:56:37;97896.91;;;12.80;68.43
48792;BME280;34587;48.816;9.420;2022-11-21T05:59:02;97905.56;;;12.80;67.88
48792;BME280;34587;48.816;9.420;2022-11-21T06:01:28;97904.72;;;12.80;67.97
48792;BME280;34587;48.816;9.420;2022-11-21T06:04:12;97913.31;;;12.82;68.34
48792;BME280;34587;48.816;9.420;2022-11-21T06:06:37;97901.09;;;12.84;68.00
48792;BME280;34587;48.816;9.420;2022-11-21T06:09:03;97911.50;;;12.84;68.16
48792;BME280;34587;48.816;9.420;2022-11-21T06:11:29;97894.97;;;12.85;67.86
48792;BME280;34587;48.816;9.420;2022-11-21T06:13:54;97897.56;;;12.85;67.89
48792;BME280;34587;48.816;9.420;2022-11-21T06:16:20;97898.41;;;12.85;67.90
48792;BME280;34587;48.816;9.420;2022-11-21T06:18:48;97896.66;;;12.86;67.99
48792;BME280;34587;48.816;9.420;2022-11-21T06:21:25;97903.56;;;12.87;67.99
48792;BME280;34587;48.816;9.420;2022-11-21T06:23:52;97893.94;;;12.89;68.28
48792;BME280;34587;48.816;9.420;2022-11-21T06:26:20;97894.78;;;12.90;67.81
48792;BME280;34587;48.816;9.420;2022-11-21T06:28:46;97899.16;;;12.89;68.27
48792;BME280;34587;48.816;9.420;2022-11-21T06:31:14;97892.25;;;12.88;68.23
48792;BME280;34587;48.816;9.420;2022-11-21T06:33:40;97904.34;;;12.89;68.55
48792;BME280;34587;48.816;9.420;2022-11-21T06:36:08;97897.47;;;12.88;68.90
48792;BME280;34587;48.816;9.420;2022-11-21T06:38:34;97896.63;;;12.88;68.89
48792;BME280;34587;48.816;9.420;2022-11-21T06:41:08;97902.66;;;12.88;68.81
48792;BME280;34587;48.816;9.420;2022-11-21T06:43:34;97899.25;;;12.86;68.43
48792;BME280;34587;48.816;9.420;2022-11-21T06:46:00;97901.03;;;12.85;68.98
48792;BME280;34587;48.816;9.420;2022-11-21T06:48:27;97908.88;;;12.84;69.12
48792;BME280;34587;48.816;9.420;2022-11-21T06:50:52;97902.78;;;12.85;68.99
48792;BME280;34587;48.816;9.420;2022-11-21T06:53:18;97913.19;;;12.85;68.90
48792;BME280;34587;48.816;9.420;2022-11-21T06:55:43;97907.97;;;12.85;68.83
48792;BME280;34587;48.816;9.420;2022-11-21T06:58:09;97911.50;;;12.84;69.07
48792;BME280;34587;48.816;9.420;2022-11-21T07:00:34;97921.88;;;12.84;69.53
48792;BME280;34587;48.816;9.420;2022-11-21T07:03:00;97924.50;;;12.84;69.33
48792;BME280;34587;48.816;9.420;2022-11-21T07:05:26;97921.88;;;12.84;69.24
48792;BME280;34587;48.816;9.420;2022-11-21T07:07:57;97916.69;;;12.84;69.71
48792;BME280;34587;48.816;9.420;2022-11-21T07:10:22;97919.28;;;12.84;69.26
48792;BME280;34587;48.816;9.420;2022-11-21T07:12:47;97909.81;;;12.83;69.46
48792;BME280;34587;48.816;9.420;2022-11-21T07:15:32;97915.00;;;12.83;69.84
48792;BME280;34587;48.816;9.420;2022-11-21T07:17:57;97915.00;;;12.83;69.63
48792;BME280;34587;48.816;9.420;2022-11-21T07:20:23;97916.69;;;12.84;69.78
48792;BME280;34587;48.816;9.420;2022-11-21T07:22:53;97918.38;;;12.85;69.50
48792;BME280;34587;48.816;9.420;2022-11-21T07:25:18;97911.50;;;12.84;69.10
48792;BME280;34587;48.816;9.420;2022-11-21T07:27:43;97904.59;;;12.83;69.35
48792;BME280;34587;48.816;9.420;2022-11-21T07:30:09;97913.31;;;12.82;69.39
48792;BME280;34587;48.816;9.420;2022-11-21T07:32:34;97915.00;;;12.83;69.42
48792;BME280;34587;48.816;9.420;2022-11-21T07:35:00;97909.81;;;12.83;69.50
48792;BME280;34587;48.816;9.420;2022-11-21T07:37:25;97908.13;;;12.82;69.57
48792;BME280;34587;48.816;9.420;2022-11-21T07:39:51;97912.41;;;12.83;69.75
48792;BME280;34587;48.816;9.420;2022-11-21T07:42:16;97917.59;;;12.83;69.11
48792;BME280;34587;48.816;9.420;2022-11-21T07:44:42;97920.22;;;12.83;69.40
48792;BME280;34587;48.816;9.420;2022-11-21T07:47:07;97913.31;;;12.82;69.55
48792;BME280;34587;48.816;9.420;2022-11-21T07:49:32;97899.41;;;12.83;69.86
48792;BME280;34587;48.816;9.420;2022-11-21T07:51:58;97914.09;;;12.84;69.93
48792;BME280;34587;48.816;9.420;2022-11-21T07:54:23;97915.84;;;12.83;69.71
48792;BME280;34587;48.816;9.420;2022-11-21T07:56:48;97923.66;;;12.83;69.79
48792;BME280;34587;48.816;9.420;2022-11-21T07:59:13;97923.72;;;12.82;69.61
48792;BME280;34587;48.816;9.420;2022-11-21T08:01:39;97925.41;;;12.83;69.63
48792;BME280;34587;48.816;9.420;2022-11-21T08:04:04;97923.66;;;12.83;69.88
48792;BME280;34587;48.816;9.420;2022-11-21T08:06:29;97920.22;;;12.83;69.96
48792;BME280;34587;48.816;9.420;2022-11-21T08:08:55;97921.03;;;12.83;69.72
48792;BME280;34587;48.816;9.420;2022-11-21T08:11:20;97925.41;;;12.83;69.63
48792;BME280;34587;48.816;9.420;2022-11-21T08:13:46;97924.56;;;12.82;69.74
48792;BME280;34587;48.816;9.420;2022-11-21T08:16:11;97924.56;;;12.82;69.97
48792;BME280;34587;48.816;9.420;2022-11-21T08:18:36;97925.41;;;12.83;69.71
48792;BME280;34587;48.816;9.420;2022-11-21T08:21:03;97938.41;;;12.83;70.06
48792;BME280;34587;48.816;9.420;2022-11-21T08:23:29;97930.59;;;12.83;69.71
48792;BME280;34587;48.816;9.420;2022-11-21T08:25:54;97928.91;;;12.82;69.84
48792;BME280;34587;48.816;9.420;2022-11-21T08:28:19;97928.00;;;12.83;69.92
48792;BME280;34587;48.816;9.420;2022-11-21T08:30:45;97919.38;;;12.82;69.99
48792;BME280;34587;48.816;9.420;2022-11-21T08:33:10;97924.56;;;12.82;69.86
48792;BME280;34587;48.816;9.420;2022-11-21T08:35:36;97921.03;;;12.83;69.62
48792;BME280;34587;48.816;9.420;2022-11-21T08:38:02;97920.22;;;12.83;69.50
48792;BME280;34587;48.816;9.420;2022-11-21T08:40:29;97915.00;;;12.83;68.95
48792;BME280;34587;48.816;9.420;2022-11-21T08:42:59;97916.75;;;12.82;69.35
48792;BME280;34587;48.816;9.420;2022-11-21T08:45:24;97912.47;;;12.81;69.71
48792;BME280;34587;48.816;9.420;2022-11-21T08:47:50;97906.41;;;12.81;69.79
48792;BME280;34587;48.816;9.420;2022-11-21T08:50:16;97912.47;;;12.81;69.51
48792;BME280;34587;48.816;9.420;2022-11-21T08:52:41;97914.22;;;12.81;69.51
48792;BME280;34587;48.816;9.420;2022-11-21T08:55:07;97909.91;;;12.80;69.69
48792;BME280;34587;48.816;9.420;2022-11-21T08:57:37;97904.72;;;12.80;69.45
48792;BME280;34587;48.816;9.420;2022-11-21T09:00:02;97908.25;;;12.79;69.84
48792;BME280;34587;48.816;9.420;2022-11-21T09:02:28;97900.38;;;12.80;69.76
48792;BME280;34587;48.816;9.420;2022-11-21T09:04:53;97894.31;;;12.80;70.07
48792;BME280;34587;48.816;9.420;2022-11-21T09:07:18;97909.91;;;12.80;70.10
48792;BME280;34587;48.816;9.420;2022-11-21T09:09:44;97902.13;;;12.80;70.08
48792;BME280;34587;48.816;9.420;2022-11-21T09:12:09;97903.03;;;12.79;69.89
48792;BME280;34587;48.816;9.420;2022-11-21T09:14:34;97904.72;;;12.80;70.00
48792;BME280;34587;48.816;9.420;2022-11-21T09:17:18;97889.97;;;12.80;70.12
48792;BME280;34587;48.816;9.420;2022-11-21T09:20:02;97883.94;;;12.80;69.76
48792;BME280;34587;48.816;9.420;2022-11-21T09:22:28;97876.13;;;12.80;69.79
48792;BME280;34587;48.816;9.420;2022-11-21T09:24:53;97877.88;;;12.79;69.54
48792;BME280;34587;48.816;9.420;2022-11-21T09:27:18;97878.72;;;12.80;69.96
48792;BME280;34587;48.816;9.420;2022-11-21T09:29:44;97882.25;;;12.79;69.21
48792;BME280;34587;48.816;9.420;2022-11-21T09:32:09;97879.66;;;12.79;69.25
48792;BME280;34587;48.816;9.420;2022-11-21T09:34:34;97879.66;;;12.79;69.66
48792;BME280;34587;48.816;9.420;2022-11-21T09:36:59;97877.03;;;12.79;69.66
48792;BME280;34587;48.816;9.420;2022-11-21T09:39:25;97865.81;;;12.78;69.57
48792;BME280;34587;48.816;9.420;2022-11-21T09:47:36;97870.16;;;12.78;70.01
48792;BME280;34587;48.816;9.420;2022-11-21T09:52:42;97880.56;;;12.78;69.68
48792;BME280;34587;48.816;9.420;2022-11-21T09:57:46;97877.97;;;12.78;70.28
48792;BME280;34587;48.816;9.420;2022-11-21T10:00:22;97869.31;;;12.77;70.25
48792;BME280;34587;48.816;9.420;2022-11-21T10:02:49;97864.97;;;12.78;70.05
48792;BME280;34587;48.816;9.420;2022-11-21T10:05:15;97864.97;;;12.78;70.04
48792;BME280;34587;48.816;9.420;2022-11-21T10:07:41;97852.81;;;12.78;69.71
48792;BME280;34587;48.816;9.420;2022-11-21T10:10:27;97849.38;;;12.78;70.21
48792;BME280;34587;48.816;9.420;2022-11-21T10:20:54;97819.84;;;12.79;70.43
48792;BME280;34587;48.816;9.420;2022-11-21T10:28:47;97810.31;;;12.79;70.66
48792;BME280;34587;48.816;9.420;2022-11-21T10:31:16;97802.50;;;12.79;70.49
48792;BME280;34587;48.816;9.420;2022-11-21T10:33:41;97792.19;;;12.78;70.25
48792;BME280;34587;48.816;9.420;2022-11-21T10:38:40;97776.59;;;12.78;69.68
48792;BME280;34587;48.816;9.420;2022-11-21T10:41:38;97773.91;;;12.79;69.83
48792;BME280;34587;48.816;9.420;2022-11-21T10:49:41;97759.16;;;12.80;70.21
48792;BME280;34587;48.816;9.420;2022-11-21T10:52:14;97761.81;;;12.78;69.89
48792;BME280;34587;48.816;9.420;2022-11-21T10:55:17;97746.22;;;12.78;69.98
48792;BME280;34587;48.816;9.420;2022-11-21T11:05:29;97750.59;;;12.78;70.53
48792;BME280;34587;48.816;9.420;2022-11-21T11:08:08;97736.66;;;12.79;70.57
48792;BME280;34587;48.816;9.420;2022-11-21T11:13:00;97726.34;;;12.77;70.53
48792;BME280;34587;48.816;9.420;2022-11-21T11:19:05;97711.59;;;12.78;70.76
48792;BME280;34587;48.816;9.420;2022-11-21T11:21:42;97705.47;;;12.79;70.58
48792;BME280;34587;48.816;9.420;2022-11-21T11:26:48;97691.56;;;12.80;70.26
48792;BME280;34587;48.816;9.420;2022-11-21T11:29:20;97679.47;;;12.79;70.34
48792;BME280;34587;48.816;9.420;2022-11-21T11:31:56;97675.97;;;12.80;70.74
48792;BME280;34587;48.816;9.420;2022-11-21T11:34:54;97673.44;;;12.78;70.17
48792;BME280;34587;48.816;9.420;2022-11-21T11:37:38;97671.78;;;12.77;68.62
48792;BME280;34587;48.816;9.420;2022-11-21T11:48:37;97652.22;;;12.69;66.69
48792;BME280;34587;48.816;9.420;2022-11-21T11:53:44;97654.03;;;12.67;66.35
48792;BME280;34587;48.816;9.420;2022-11-21T11:56:19;97654.81;;;12.69;66.64
48792;BME280;34587;48.816;9.420;2022-11-21T11:59:22;97657.41;;;12.69;67.12
48792;BME280;34587;48.816;9.420;2022-11-21T12:02:00;97652.22;;;12.69;66.31
48792;BME280;34587;48.816;9.420;2022-11-21T12:04:29;97638.31;;;12.70;67.39
48792;BME280;34587;48.816;9.420;2022-11-21T12:07:03;97634.78;;;12.71;67.18
48792;BME280;34587;48.816;9.420;2022-11-21T12:12:26;97624.41;;;12.71;68.13
48792;BME280;34587;48.816;9.420;2022-11-21T12:20:56;97613.03;;;12.73;68.85
48792;BME280;34587;48.816;9.420;2022-11-21T12:29:16;97604.31;;;12.74;68.04
48792;BME280;34587;48.816;9.420;2022-11-21T12:34:51;97589.56;;;12.75;67.68
48792;BME280;34587;48.816;9.420;2022-11-21T12:37:38;97589.56;;;12.75;68.15
48792;BME280;34587;48.816;9.420;2022-11-21T12:42:46;97575.81;;;12.73;68.10
48792;BME280;34587;48.816;9.420;2022-11-21T12:45:29;97568.94;;;12.72;68.25
48792;BME280;34587;48.816;9.420;2022-11-21T12:48:35;97558.53;;;12.72;68.89
48792;BME280;34587;48.816;9.420;2022-11-21T13:02:42;97544.63;;;12.73;69.45
48792;BME280;34587;48.816;9.420;2022-11-21T13:05:17;97532.53;;;12.72;69.29
48792;BME280;34587;48.816;9.420;2022-11-21T13:07:45;97526.44;;;12.73;69.59
48792;BME280;34587;48.816;9.420;2022-11-21T13:10:13;97516.88;;;12.73;69.92
48792;BME280;34587;48.816;9.420;2022-11-21T13:13:29;97509.06;;;12.73;70.13
48792;BME280;34587;48.816;9.420;2022-11-21T13:15:42;97504.72;;;12.74;70.39
48792;BME280;34587;48.816;9.420;2022-11-21T13:20:48;97494.31;;;12.74;70.09
48792;BME280;34587;48.816;9.420;2022-11-21T13:25:57;97481.22;;;12.75;69.99
48792;BME280;34587;48.816;9.420;2022-11-21T13:28:28;97474.28;;;12.76;70.33
48792;BME280;34587;48.816;9.420;2022-11-21T13:30:56;97476.88;;;12.76;70.00
48792;BME280;34587;48.816;9.420;2022-11-21T13:36:09;97474.28;;;12.76;70.37
48792;BME280;34587;48.816;9.420;2022-11-21T13:44:37;97467.31;;;12.76;70.57
48792;BME280;34587;48.816;9.420;2022-11-21T13:47:11;97458.69;;;12.76;70.56
48792;BME280;34587;48.816;9.420;2022-11-21T14:04:21;97434.41;;;12.77;70.08
48792;BME280;34587;48.816;9.420;2022-11-21T14:06:49;97434.41;;;12.77;69.91
48792;BME280;34587;48.816;9.420;2022-11-21T14:09:34;97426.59;;;12.77;70.24
48792;BME280;34587;48.816;9.420;2022-11-21T14:12:03;97422.25;;;12.77;70.14
48792;BME280;34587;48.816;9.420;2022-11-21T14:14:41;97411.00;;;12.77;70.39
48792;BME280;34587;48.816;9.420;2022-11-21T14:19:40;97400.59;;;12.77;68.54
48792;BME280;34587;48.816;9.420;2022-11-21T14:23:13;97394.50;;;12.78;68.70
48792;BME280;34587;48.816;9.420;2022-11-21T14:25:15;97397.09;;;12.78;68.88
48792;BME280;34587;48.816;9.420;2022-11-21T14:27:45;97397.94;;;12.78;69.68
48792;BME280;34587;48.816;9.420;2022-11-21T14:30:38;97398.84;;;12.77;69.87
48792;BME280;34587;48.816;9.420;2022-11-21T14:33:21;97391.88;;;12.78;69.97
48792;BME280;34587;48.816;9.420;2022-11-21T14:36:13;97391.88;;;12.78;69.81
48792;BME280;34587;48.816;9.420;2022-11-21T14:38:44;97384.16;;;12.76;70.07
48792;BME280;34587;48.816;9.420;2022-11-21T14:46:25;97376.28;;;12.78;70.07
48792;BME280;34587;48.816;9.420;2022-11-21T14:48:51;97377.13;;;12.78;70.14
48792;BME280;34587;48.816;9.420;2022-11-21T14:51:19;97382.41;;;12.77;70.21
48792;BME280;34587;48.816;9.420;2022-11-21T14:53:47;97380.66;;;12.77;70.19
48792;BME280;34587;48.816;9.420;2022-11-21T14:56:28;97370.25;;;12.77;69.94
48792;BME280;34587;48.816;9.420;2022-11-21T14:58:56;97354.66;;;12.77;70.09
48792;BME280;34587;48.816;9.420;2022-11-21T15:01:27;97338.22;;;12.77;70.05
48792;BME280;34587;48.816;9.420;2022-11-21T15:03:58;97353.66;;;12.80;69.83
48792;BME280;34587;48.816;9.420;2022-11-21T15:06:25;97345.09;;;12.78;69.51
48792;BME280;34587;48.816;9.420;2022-11-21T15:08:53;97337.31;;;12.78;69.70
48792;BME280;34587;48.816;9.420;2022-11-21T15:11:19;97327.84;;;12.77;69.82
48792;BME280;34587;48.816;9.420;2022-11-21T15:13:49;97329.50;;;12.78;69.60
48792;BME280;34587;48.816;9.420;2022-11-21T15:16:17;97313.06;;;12.77;69.59
48792;BME280;34587;48.816;9.420;2022-11-21T15:18:43;97298.31;;;12.78;68.93
48792;BME280;34587;48.816;9.420;2022-11-21T15:21:12;97293.13;;;12.78;68.94
48792;BME280;34587;48.816;9.420;2022-11-21T15:23:38;97289.75;;;12.76;69.03
48792;BME280;34587;48.816;9.420;2022-11-21T15:26:05;97279.34;;;12.76;69.86
48792;BME280;34587;48.816;9.420;2022-11-21T15:28:31;97278.44;;;12.77;70.06
48792;BME280;34587;48.816;9.420;2022-11-21T15:31:19;97266.34;;;12.76;69.30
48792;BME280;34587;48.816;9.420;2022-11-21T15:34:02;97253.34;;;12.76;69.11
48792;BME280;34587;48.816;9.420;2022-11-21T15:36:29;97249.00;;;12.76;68.93
48792;BME280;34587;48.816;9.420;2022-11-21T15:39:16;97242.06;;;12.77;69.90
48792;BME280;34587;48.816;9.420;2022-11-21T15:41:43;97228.19;;;12.76;70.01
48792;BME280;34587;48.816;9.420;2022-11-21T15:46:35;97227.38;;;12.76;70.01
48792;BME280;34587;48.816;9.420;2022-11-21T15:49:11;97213.47;;;12.77;69.92
48792;BME280;34587;48.816;9.420;2022-11-21T15:51:45;97208.28;;;12.77;70.32
48792;BME280;34587;48.816;9.420;2022-11-21T15:54:20;97200.47;;;12.77;70.22
48792;BME280;34587;48.816;9.420;2022-11-21T15:56:46;97196.19;;;12.76;70.46
48792;BME280;34587;48.816;9.420;2022-11-21T15:59:12;97183.97;;;12.78;70.47
48792;BME280;34587;48.816;9.420;2022-11-21T16:01:38;97187.50;;;12.77;70.05
48792;BME280;34587;48.816;9.420;2022-11-21T16:04:06;97178.75;;;12.78;70.15
48792;BME280;34587;48.816;9.420;2022-11-21T16:06:32;97182.28;;;12.77;69.94
48792;BME280;34587;48.816;9.420;2022-11-21T16:08:59;97174.50;;;12.77;70.32
48792;BME280;34587;48.816;9.420;2022-11-21T16:11:35;97173.56;;;12.78;70.53
48792;BME280;34587;48.816;9.420;2022-11-21T16:14:14;97170.19;;;12.76;70.39
48792;BME280;34587;48.816;9.420;2022-11-21T16:16:41;97170.13;;;12.77;70.36
48792;BME280;34587;48.816;9.420;2022-11-21T16:19:09;97164.09;;;12.77;70.29
48792;BME280;34587;48.816;9.420;2022-11-21T16:21:35;97156.31;;;12.77;70.31
48792;BME280;34587;48.816;9.420;2022-11-21T16:24:01;97157.13;;;12.77;70.22
48792;BME280;34587;48.816;9.420;2022-11-21T16:26:26;97158.91;;;12.77;70.42
48792;BME280;34587;48.816;9.420;2022-11-21T16:29:01;97156.31;;;12.77;70.10
48792;BME280;34587;48.816;9.420;2022-11-21T16:31:30;97151.09;;;12.77;70.32
48792;BME280;34587;48.816;9.420;2022-11-21T16:33:56;97140.72;;;12.77;70.00
48792;BME280;34587;48.816;9.420;2022-11-21T16:36:27;97142.38;;;12.78;69.93
48792;BME280;34587;48.816;9.420;2022-11-21T16:38:53;97131.97;;;12.78;70.12
48792;BME280;34587;48.816;9.420;2022-11-21T16:41:20;97122.50;;;12.77;70.03
48792;BME280;34587;48.816;9.420;2022-11-21T16:43:51;97115.56;;;12.77;70.03
48792;BME280;34587;48.816;9.420;2022-11-21T16:46:18;97107.75;;;12.77;70.10
48792;BME280;34587;48.816;9.420;2022-11-21T16:48:44;97104.31;;;12.77;69.82
48792;BME280;34587;48.816;9.420;2022-11-21T16:51:19;97099.13;;;12.77;69.85
48792;BME280;34587;48.816;9.420;2022-11-21T16:53:46;97088.72;;;12.77;70.23
48792;BME280;34587;48.816;9.420;2022-11-21T16:56:12;97088.72;;;12.77;70.13
48792;BME280;34587;48.816;9.420;2022-11-21T16:58:39;97074.03;;;12.76;70.04
48792;BME280;34587;48.816;9.420;2022-11-21T17:01:16;97084.44;;;12.76;69.86
48792;BME280;34587;48.816;9.420;2022-11-21T17:03:43;97082.66;;;12.76;70.13
48792;BME280;34587;48.816;9.420;2022-11-21T17:06:09;97093.94;;;12.77;70.26
48792;BME280;34587;48.816;9.420;2022-11-21T17:08:36;97093.94;;;12.77;70.36
48792;BME280;34587;48.816;9.420;2022-11-21T17:11:22;97101.72;;;12.77;70.11
48792;BME280;34587;48.816;9.420;2022-11-21T17:13:50;97093.06;;;12.76;69.99
48792;BME280;34587;48.816;9.420;2022-11-21T17:16:17;97093.94;;;12.77;69.39
48792;BME280;34587;48.816;9.420;2022-11-21T17:18:44;97091.31;;;12.77;69.14
48792;BME280;34587;48.816;9.420;2022-11-21T17:21:11;97088.72;;;12.77;69.90
48792;BME280;34587;48.816;9.420;2022-11-21T17:23:38;97074.03;;;12.76;69.65
48792;BME280;34587;48.816;9.420;2022-11-21T17:26:06;97073.28;;;12.74;69.12
48792;BME280;34587;48.816;9.420;2022-11-21T17:28:32;97076.63;;;12.76;68.95
48792;BME280;34587;48.816;9.420;2022-11-21T17:30:58;97066.25;;;12.76;69.31
48792;BME280;34587;48.816;9.420;2022-11-21T17:33:24;97064.56;;;12.75;69.57
48792;BME280;34587;48.816;9.420;2022-11-21T17:35:49;97064.47;;;12.76;69.63
48792;BME280;34587;48.816;9.420;2022-11-21T17:38:15;97050.63;;;12.76;69.40
48792;BME280;34587;48.816;9.420;2022-11-21T17:40:40;97045.44;;;12.76;69.83
48792;BME280;34587;48.816;9.420;2022-11-21T17:43:05;97041.09;;;12.76;69.78
48792;BME280;34587;48.816;9.420;2022-11-21T17:45:33;97035.88;;;12.76;69.98
48792;BME280;34587;48.816;9.420;2022-11-21T17:47:59;97035.88;;;12.76;70.18
48792;BME280;34587;48.816;9.420;2022-11-21T17:50:24;97030.63;;;12.78;69.71
48792;BME280;34587;48.816;9.420;2022-11-21T17:52:49;97041.84;;;12.78;70.09
48792;BME280;34587;48.816;9.420;2022-11-21T17:55:15;97043.63;;;12.78;70.00
48792;BME280;34587;48.816;9.420;2022-11-21T17:57:40;97026.34;;;12.77;69.33
48792;BME280;34587;48.816;9.420;2022-11-21T18:00:06;97015.97;;;12.77;68.97
48792;BME280;34587;48.816;9.420;2022-11-21T18:02:31;96999.59;;;12.75;68.38
48792;BME280;34587;48.816;9.420;2022-11-21T18:04:56;96983.25;;;12.73;67.67
48792;BME280;34587;48.816;9.420;2022-11-21T18:07:22;96986.78;;;12.72;68.02
48792;BME280;34587;48.816;9.420;2022-11-21T18:09:47;97012.78;;;12.72;68.46
48792;BME280;34587;48.816;9.420;2022-11-21T18:12:12;97017.97;;;12.72;68.63
48792;BME280;34587;48.816;9.420;2022-11-21T18:14:38;97021.31;;;12.74;68.73
48792;BME280;34587;48.816;9.420;2022-11-21T18:17:03;97018.72;;;12.74;68.86
48792;BME280;34587;48.816;9.420;2022-11-21T18:19:28;97007.41;;;12.75;68.81
48792;BME280;34587;48.816;9.420;2022-11-21T18:21:54;97004.69;;;12.76;68.85
48792;BME280;34587;48.816;9.420;2022-11-21T18:24:19;96995.16;;;12.77;68.99
48792;BME280;34587;48.816;9.420;2022-11-21T18:26:44;96990.81;;;12.77;68.84
48792;BME280;34587;48.816;9.420;2022-11-21T18:29:10;96982.91;;;12.79;68.64
48792;BME280;34587;48.816;9.420;2022-11-21T18:31:36;96975.94;;;12.79;68.69
48792;BME280;34587;48.816;9.420;2022-11-21T18:34:03;96981.06;;;12.81;68.61
48792;BME280;34587;48.816;9.420;2022-11-21T18:36:29;96975.03;;;12.80;68.60
48792;BME280;34587;48.816;9.420;2022-11-21T18:38:58;96985.41;;;12.80;69.16
48792;BME280;34587;48.816;9.420;2022-11-21T18:41:25;96984.59;;;12.80;68.87
48792;BME280;34587;48.816;9.420;2022-11-21T18:43:52;96980.22;;;12.80;68.95
48792;BME280;34587;48.816;9.420;2022-11-21T18:46:19;96970.66;;;12.81;69.25
48792;BME280;34587;48.816;9.420;2022-11-21T18:48:45;96966.31;;;12.81;69.32
48792;BME280;34587;48.816;9.420;2022-11-21T18:51:13;96963.78;;;12.80;69.35
48792;BME280;34587;48.816;9.420;2022-11-21T18:53:40;96963.78;;;12.80;69.13
48792;BME280;34587;48.816;9.420;2022-11-21T18:56:07;96969.00;;;12.80;69.56
48792;BME280;34587;48.816;9.420;2022-11-21T18:58:37;96965.47;;;12.81;69.35
48792;BME280;34587;48.816;9.420;2022-11-21T19:01:04;96968.16;;;12.79;69.45
48792;BME280;34587;48.816;9.420;2022-11-21T19:03:30;96967.31;;;12.79;69.43
48792;BME280;34587;48.816;9.420;2022-11-21T19:05:55;96959.53;;;12.79;69.03
48792;BME280;34587;48.816;9.420;2022-11-21T19:08:21;96956.09;;;12.78;69.22
48792;BME280;34587;48.816;9.420;2022-11-21T19:10:46;96964.81;;;12.77;69.33
48792;BME280;34587;48.816;9.420;2022-11-21T19:13:12;96960.44;;;12.78;68.73
48792;BME280;34587;48.816;9.420;2022-11-21T19:15:37;96960.44;;;12.78;68.47
48792;BME280;34587;48.816;9.420;2022-11-21T19:18:05;96960.44;;;12.78;68.81
48792;BME280;34587;48.816;9.420;2022-11-21T19:20:38;96963.06;;;12.78;68.98
48792;BME280;34587;48.816;9.420;2022-11-21T19:23:04;96951.81;;;12.77;68.94
48792;BME280;34587;48.816;9.420;2022-11-21T19:25:30;96963.13;;;12.76;68.86
48792;BME280;34587;48.816;9.420;2022-11-21T19:27:56;96957.09;;;12.76;68.83
48792;BME280;34587;48.816;9.420;2022-11-21T19:30:22;96957.09;;;12.76;68.47
48792;BME280;34587;48.816;9.420;2022-11-21T19:32:47;96949.28;;;12.76;68.96